Terminal Aerodrome Forecast
Issued by NWS Des Moines, IA

Home | Current Version | Previous Version | Text Only | Print | Product List | Glossary On
Versions: 1 2 3 4 5 6 7 8 9 10 11 12 13 14 15 16 17 18 19 20 21 22 23 24 25 26 27 28 29 30 31 32 33 34 35 36 37 38 39 40 41
727
FTUS43 KDMX 031130
TAFALO
TAF
KALO 031130Z 0312/0412 26006KT P6SM FEW200
     FM031600 27011G17KT P6SM FEW250
     FM040000 26011KT P6SM SCT060
     FM040200 28010KT P6SM VCSH SCT120
     FM040400 32010KT P6SM FEW200=

USA.gov is the U.S. government's official web portal to all federal, state and local government web resources and services.